createdAt,value
2023-02-21T00:02:05.027Z,72.69
2023-02-21T00:04:53.003Z,73.36
2023-02-21T00:07:39.546Z,72.98
2023-02-21T00:10:26.139Z,73.41
2023-02-21T00:13:12.486Z,74.49
2023-02-21T00:15:58.563Z,74.34
2023-02-21T00:18:44.604Z,74.95
2023-02-21T00:21:31.865Z,73.73
2023-02-21T00:24:18.090Z,73.12
2023-02-21T00:27:04.495Z,74.01
2023-02-21T00:29:50.590Z,74.44
2023-02-21T00:32:36.575Z,74.09
2023-02-21T00:35:23.162Z,74.63
2023-02-21T00:38:11.100Z,74.63
2023-02-21T00:40:57.393Z,74.55
2023-02-21T00:43:46.974Z,74.56
2023-02-21T00:46:33.225Z,74.43
2023-02-21T00:49:19.246Z,74.58
2023-02-21T00:52:05.278Z,75.67
2023-02-21T00:54:52.733Z,76.05
2023-02-21T00:57:38.829Z,76.45
2023-02-21T01:00:35.518Z,76.01
2023-02-21T01:03:21.532Z,76.23
2023-02-21T01:06:07.650Z,76.75
2023-02-21T01:08:54.098Z,76.63
2023-02-21T01:11:41.385Z,76.40
2023-02-21T01:14:28.476Z,76.85
2023-02-21T01:17:14.932Z,77.06
2023-02-21T01:20:01.442Z,76.76
2023-02-21T01:22:48.255Z,76.91
2023-02-21T01:25:34.920Z,77.23
2023-02-21T01:28:22.836Z,77.32
2023-02-21T01:31:09.094Z,78.37
2023-02-21T01:33:56.769Z,79.01
2023-02-21T01:36:42.757Z,78.18
2023-02-21T01:39:29.379Z,79.14
2023-02-21T01:42:15.848Z,79.94
2023-02-21T01:45:04.443Z,80.19
2023-02-21T01:47:51.538Z,80.10
2023-02-21T01:50:39.594Z,79.49
2023-02-21T01:53:28.719Z,79.31
2023-02-21T01:56:15.836Z,79.06
2023-02-21T01:59:02.090Z,79.14
2023-02-21T02:01:53.743Z,79.41
2023-02-21T02:04:39.944Z,79.53
2023-02-21T02:07:26.247Z,80.66
2023-02-21T02:10:12.326Z,80.17
2023-02-21T02:12:54.431Z,80.00
2023-02-21T02:15:38.738Z,79.65
2023-02-21T02:18:31.451Z,80.11
2023-02-21T02:21:36.424Z,79.95
2023-02-21T02:24:32.830Z,80.39
2023-02-21T02:27:38.145Z,79.30
2023-02-21T02:30:52.438Z,80.43
2023-02-21T02:33:59.590Z,80.35
2023-02-21T02:36:31.342Z,79.82
2023-02-21T02:39:04.546Z,80.01
2023-02-21T02:41:43.205Z,80.24
2023-02-21T02:44:15.182Z,81.00
2023-02-21T02:46:44.926Z,81.25
2023-02-21T02:49:16.010Z,80.92
2023-02-21T02:51:46.818Z,81.70
2023-02-21T02:54:15.418Z,80.87
2023-02-21T02:56:44.068Z,81.32
2023-02-21T02:59:14.404Z,81.70
2023-02-21T03:01:58.140Z,80.61
2023-02-21T03:04:48.638Z,81.71
2023-02-21T03:07:22.837Z,81.44
2023-02-21T03:09:57.906Z,81.35
2023-02-21T03:12:34.102Z,81.31
2023-02-21T03:15:05.931Z,82.16
2023-02-21T03:17:39.612Z,81.55
2023-02-21T03:20:09.324Z,81.79
2023-02-21T03:22:39.413Z,81.36
2023-02-21T03:25:09.310Z,81.17
2023-02-21T03:27:39.458Z,81.36
2023-02-21T03:30:09.769Z,81.10
2023-02-21T03:32:40.363Z,82.07
2023-02-21T03:35:09.415Z,82.29
2023-02-21T03:37:41.241Z,81.66
2023-02-21T03:40:12.377Z,81.68
2023-02-21T03:42:41.033Z,80.61
2023-02-21T03:45:10.550Z,80.59
2023-02-21T03:47:39.258Z,82.07
2023-02-21T03:50:08.452Z,82.04
2023-02-21T03:52:37.033Z,81.37
2023-02-21T03:55:08.098Z,80.64
2023-02-21T03:57:36.778Z,81.15
2023-02-21T04:00:06.259Z,81.07
2023-02-21T04:02:35.061Z,81.52
2023-02-21T04:05:04.036Z,81.72
2023-02-21T04:07:32.657Z,81.04
2023-02-21T04:10:01.305Z,81.70
2023-02-21T04:12:31.312Z,80.93
2023-02-21T04:14:59.913Z,80.60
2023-02-21T04:17:28.587Z,81.91
2023-02-21T04:19:57.212Z,82.00
2023-02-21T04:22:25.831Z,81.76
2023-02-21T04:24:54.453Z,82.26
2023-02-21T04:27:23.051Z,82.84
2023-02-21T04:29:53.047Z,82.11
2023-02-21T04:32:21.687Z,82.30
2023-02-21T04:34:50.432Z,82.59
2023-02-21T04:37:19.069Z,82.53
2023-02-21T04:39:47.724Z,82.48
2023-02-21T04:42:16.456Z,81.48
2023-02-21T04:44:55.021Z,82.30
2023-02-21T04:47:29.593Z,82.73
2023-02-21T04:49:58.639Z,81.75
2023-02-21T04:52:27.503Z,82.45
2023-02-21T04:54:56.085Z,82.04
2023-02-21T04:57:24.781Z,82.55
2023-02-21T04:59:58.144Z,82.31
2023-02-21T05:02:26.924Z,82.33
2023-02-21T05:04:56.889Z,82.41
2023-02-21T05:07:25.548Z,83.06
2023-02-21T05:09:54.218Z,82.94
2023-02-21T05:12:22.780Z,83.53
2023-02-21T05:14:51.385Z,83.54
2023-02-21T05:17:19.978Z,82.49
2023-02-21T05:19:48.738Z,82.94
2023-02-21T05:22:20.344Z,83.12
2023-02-21T05:24:49.258Z,82.82
2023-02-21T05:27:19.192Z,82.17
2023-02-21T05:29:48.635Z,82.28
2023-02-21T05:32:17.373Z,82.49
2023-02-21T05:34:47.683Z,82.17
2023-02-21T05:37:21.023Z,82.95
2023-02-21T05:39:50.088Z,82.42
2023-02-21T05:42:18.700Z,82.93
2023-02-21T05:44:47.489Z,82.56
2023-02-21T05:47:16.539Z,83.05
2023-02-21T05:49:45.347Z,83.28
2023-02-21T05:52:15.746Z,83.02
2023-02-21T05:54:45.729Z,83.27
2023-02-21T05:57:14.349Z,83.95
2023-02-21T05:59:43.568Z,83.96
2023-02-21T06:02:12.151Z,83.79
2023-02-21T06:04:40.747Z,82.92
2023-02-21T06:07:09.391Z,83.11
2023-02-21T06:09:37.974Z,83.33
2023-02-21T06:12:08.296Z,83.34
2023-02-21T06:14:36.858Z,83.10
2023-02-21T06:17:05.484Z,82.67
2023-02-21T06:19:34.054Z,82.90
2023-02-21T06:22:02.618Z,82.65
2023-02-21T06:24:31.250Z,82.72
2023-02-21T06:26:59.912Z,83.15
2023-02-21T06:29:29.878Z,83.57
2023-02-21T06:31:59.102Z,83.76
2023-02-21T06:34:28.360Z,84.07
2023-02-21T06:36:57.117Z,84.26
2023-02-21T06:39:25.787Z,84.85
2023-02-21T06:41:54.382Z,84.09
2023-02-21T06:44:23.080Z,84.05
2023-02-21T06:46:54.764Z,84.84
2023-02-21T06:49:23.320Z,84.52
2023-02-21T06:51:52.009Z,84.07
2023-02-21T06:54:20.577Z,83.85
2023-02-21T06:56:49.177Z,83.16
2023-02-21T06:59:17.811Z,83.52
2023-02-21T07:01:46.404Z,82.82
2023-02-21T07:04:16.405Z,82.79
2023-02-21T07:06:45.067Z,83.45
2023-02-21T07:09:14.404Z,83.30
2023-02-21T07:11:44.303Z,84.46
2023-02-21T07:14:12.940Z,84.01
2023-02-21T07:16:41.533Z,84.42
2023-02-21T07:19:10.343Z,84.45
2023-02-21T07:21:40.306Z,84.40
2023-02-21T07:24:08.992Z,83.81
2023-02-21T07:26:38.332Z,83.86
2023-02-21T07:29:07.633Z,84.75
2023-02-21T07:31:36.416Z,84.13
2023-02-21T07:34:05.074Z,83.53
2023-02-21T07:36:33.722Z,83.30
2023-02-21T07:39:03.682Z,82.78
2023-02-21T07:41:32.323Z,82.17
2023-02-21T07:44:00.944Z,81.92
2023-02-21T07:46:30.028Z,82.54
2023-02-21T07:48:58.821Z,81.99
2023-02-21T07:51:29.562Z,81.91
2023-02-21T07:53:58.340Z,81.89
2023-02-21T07:56:28.384Z,81.40
2023-02-21T07:58:57.004Z,80.77
2023-02-21T08:01:26.808Z,80.77
2023-02-21T08:03:55.496Z,81.37
2023-02-21T08:06:24.183Z,79.44
2023-02-21T08:08:52.737Z,79.38
2023-02-21T08:11:21.346Z,78.81
2023-02-21T08:13:51.354Z,78.53
2023-02-21T08:16:20.032Z,77.31
2023-02-21T08:18:50.688Z,77.83
2023-02-21T08:21:19.294Z,77.24
2023-02-21T08:23:47.918Z,76.98
2023-02-21T08:26:16.545Z,76.58
2023-02-21T08:28:45.195Z,76.37
2023-02-21T08:31:15.564Z,76.07
2023-02-21T08:33:45.245Z,76.61
2023-02-21T08:36:13.816Z,75.87
2023-02-21T08:38:42.398Z,75.17
2023-02-21T08:41:11.043Z,74.32
2023-02-21T08:43:39.662Z,73.03
2023-02-21T08:46:09.097Z,73.49
2023-02-21T08:48:39.027Z,73.44
2023-02-21T08:51:07.604Z,73.06
2023-02-21T08:53:36.174Z,72.83
2023-02-21T08:56:04.967Z,71.48
2023-02-21T08:58:33.537Z,71.70
2023-02-21T09:01:02.212Z,71.80
2023-02-21T09:03:30.953Z,72.11
2023-02-21T09:06:02.730Z,71.71
2023-02-21T09:08:31.874Z,70.50
2023-02-21T09:11:01.229Z,69.55
2023-02-21T09:13:30.285Z,69.87
2023-02-21T09:15:58.909Z,69.08
2023-02-21T09:18:29.512Z,70.13
2023-02-21T09:20:59.244Z,68.16
2023-02-21T09:23:33.668Z,67.06
2023-02-21T09:26:02.339Z,66.89
2023-02-21T09:28:31.599Z,66.60
2023-02-21T09:31:00.151Z,66.13
2023-02-21T09:33:30.881Z,65.60
2023-02-21T09:35:59.487Z,65.81
2023-02-21T09:38:29.464Z,66.13
2023-02-21T09:41:00.917Z,65.84
2023-02-21T09:43:33.507Z,65.22
2023-02-21T09:46:04.951Z,64.97
2023-02-21T09:48:33.593Z,64.52
2023-02-21T09:51:05.728Z,64.25
2023-02-21T09:53:40.063Z,63.96
2023-02-21T09:56:12.515Z,64.95
2023-02-21T09:58:44.345Z,65.18
2023-02-21T10:01:23.803Z,63.36
2023-02-21T10:03:58.003Z,63.67
2023-02-21T10:06:35.956Z,62.40
2023-02-21T10:09:09.675Z,62.05
2023-02-21T10:11:44.686Z,61.97
2023-02-21T10:14:20.550Z,61.72
2023-02-21T10:16:53.416Z,60.95
2023-02-21T10:19:26.086Z,60.38
2023-02-21T10:21:58.666Z,60.32
2023-02-21T10:24:29.646Z,59.98
2023-02-21T10:27:01.003Z,60.04
2023-02-21T10:29:37.296Z,59.92
2023-02-21T10:32:07.162Z,58.54
2023-02-21T10:34:36.017Z,58.73
2023-02-21T10:37:12.588Z,58.16
2023-02-21T10:39:46.185Z,57.65
2023-02-21T10:42:22.695Z,57.32
2023-02-21T10:44:51.584Z,57.96
2023-02-21T10:47:22.049Z,57.65
2023-02-21T10:49:55.028Z,56.81
2023-02-21T10:52:23.727Z,56.95
2023-02-21T10:55:05.261Z,56.85
2023-02-21T10:57:35.104Z,56.47
2023-02-21T11:00:10.451Z,55.99
2023-02-21T11:02:41.108Z,56.24
2023-02-21T11:05:13.263Z,54.59
2023-02-21T11:07:43.249Z,53.35
2023-02-21T11:10:32.863Z,53.10
2023-02-21T11:13:16.100Z,52.58
2023-02-21T11:15:45.175Z,53.57
2023-02-21T11:18:18.700Z,52.48
2023-02-21T11:20:47.687Z,53.01
2023-02-21T11:23:21.791Z,52.21
2023-02-21T11:25:55.890Z,52.80
2023-02-21T11:28:25.053Z,51.25
2023-02-21T11:31:08.644Z,52.09
2023-02-21T11:33:38.833Z,51.80
2023-02-21T11:36:10.652Z,50.44
2023-02-21T11:38:41.428Z,50.93
2023-02-21T11:41:23.638Z,48.39
2023-02-21T11:43:53.124Z,48.51
2023-02-21T11:46:34.166Z,50.39
2023-02-21T11:49:04.707Z,50.22
2023-02-21T11:51:41.721Z,49.11
2023-02-21T11:54:10.534Z,46.78
2023-02-21T11:56:48.641Z,45.07
2023-02-21T11:59:25.326Z,47.96
2023-02-21T12:02:05.004Z,47.38
2023-02-21T12:04:43.896Z,44.29
2023-02-21T12:07:18.276Z,42.53
2023-02-21T12:09:53.124Z,42.80
2023-02-21T12:12:42.092Z,41.28
2023-02-21T12:15:19.867Z,41.08
2023-02-21T12:17:59.108Z,41.63
2023-02-21T12:20:45.619Z,43.78
2023-02-21T12:23:19.211Z,44.36
2023-02-21T12:26:03.377Z,42.56
2023-02-21T12:28:41.834Z,42.07
2023-02-21T12:31:21.806Z,41.61
2023-02-21T12:33:57.237Z,41.88
2023-02-21T12:36:46.195Z,42.19
2023-02-21T12:39:28.316Z,42.13
2023-02-21T12:42:06.941Z,41.48
2023-02-21T12:44:42.934Z,42.96
2023-02-21T12:47:14.734Z,42.91
2023-02-21T12:49:47.083Z,42.01
2023-02-21T12:52:17.615Z,40.61
2023-02-21T12:54:49.591Z,40.43
2023-02-21T12:57:22.508Z,39.68
2023-02-21T12:59:59.131Z,41.43
2023-02-21T13:02:34.915Z,43.09
2023-02-21T13:05:07.616Z,41.62
2023-02-21T13:07:38.483Z,40.78
2023-02-21T13:10:13.962Z,39.06
2023-02-21T13:12:46.058Z,39.14
2023-02-21T13:15:21.991Z,39.59
2023-02-21T13:17:56.229Z,39.72
2023-02-21T13:20:26.407Z,38.82
2023-02-21T13:23:43.257Z,38.98
2023-02-21T13:26:25.303Z,39.37
2023-02-21T13:28:54.875Z,40.64
2023-02-21T13:31:26.338Z,41.67
2023-02-21T13:33:57.409Z,41.71
2023-02-21T13:36:28.662Z,41.21
2023-02-21T13:39:00.030Z,41.28
2023-02-21T13:41:31.118Z,39.57
2023-02-21T13:44:01.157Z,39.34
2023-02-21T13:47:15.653Z,39.44
2023-02-21T13:49:54.373Z,39.49
2023-02-21T13:52:57.899Z,40.10
2023-02-21T13:55:28.264Z,40.46
2023-02-21T13:58:39.317Z,39.47
2023-02-21T14:01:22.502Z,39.55
2023-02-21T14:03:53.429Z,40.94
2023-02-21T14:06:34.905Z,40.72
2023-02-21T14:09:06.878Z,40.22
2023-02-21T14:11:39.430Z,39.11
2023-02-21T14:14:22.103Z,40.56
2023-02-21T14:16:54.533Z,40.00
2023-02-21T14:19:26.914Z,39.13
2023-02-21T14:22:03.346Z,40.93
2023-02-21T14:24:33.924Z,39.91
2023-02-21T14:27:05.390Z,39.86
2023-02-21T14:29:38.786Z,41.23
2023-02-21T14:32:28.111Z,39.83
2023-02-21T14:34:58.233Z,38.36
2023-02-21T14:37:40.046Z,38.95
2023-02-21T14:40:21.415Z,39.14
2023-02-21T14:43:02.440Z,40.26
2023-02-21T14:45:39.214Z,40.67
2023-02-21T14:48:18.616Z,39.80
2023-02-21T14:51:09.161Z,41.00
2023-02-21T14:53:56.947Z,39.88
2023-02-21T14:56:41.486Z,41.10
2023-02-21T14:59:26.373Z,41.30
2023-02-21T15:02:04.279Z,41.96
2023-02-21T15:04:37.241Z,41.73
2023-02-21T15:07:14.698Z,41.24
2023-02-21T15:09:44.769Z,41.54
2023-02-21T15:12:17.275Z,42.14
2023-02-21T15:14:49.794Z,43.20
2023-02-21T15:17:21.790Z,41.90
2023-02-21T15:20:05.570Z,41.90
2023-02-21T15:22:34.194Z,43.13
2023-02-21T15:25:24.771Z,42.29
2023-02-21T15:27:56.168Z,42.42
2023-02-21T15:30:27.594Z,43.10
2023-02-21T15:32:59.435Z,42.62
2023-02-21T15:35:33.542Z,42.67
2023-02-21T15:38:05.991Z,43.67
2023-02-21T15:40:36.107Z,43.51
2023-02-21T15:43:05.311Z,43.59
2023-02-21T15:45:37.728Z,44.02
2023-02-21T15:48:06.377Z,44.07
2023-02-21T15:50:37.667Z,44.19
2023-02-21T15:53:14.285Z,43.99
2023-02-21T15:55:45.437Z,44.52
2023-02-21T15:58:17.754Z,44.41
2023-02-21T16:00:47.326Z,44.93
2023-02-21T16:03:30.360Z,44.73
2023-02-21T16:06:13.482Z,44.91
2023-02-21T16:08:53.284Z,45.02
2023-02-21T16:11:23.285Z,45.32
2023-02-21T16:13:51.888Z,46.11
2023-02-21T16:16:21.695Z,46.24
2023-02-21T16:18:56.948Z,46.90
2023-02-21T16:21:27.954Z,47.94
2023-02-21T16:23:56.951Z,47.40
2023-02-21T16:26:28.392Z,48.41
2023-02-21T16:28:59.963Z,50.05
2023-02-21T16:31:31.226Z,50.87
2023-02-21T16:33:59.992Z,52.07
2023-02-21T16:36:32.525Z,51.34
2023-02-21T16:39:01.155Z,51.42
2023-02-21T16:41:31.112Z,51.96
2023-02-21T16:43:59.663Z,53.10
2023-02-21T16:46:30.314Z,53.65
2023-02-21T16:48:59.934Z,54.20
2023-02-21T16:51:33.612Z,54.10
2023-02-21T16:54:03.147Z,54.67
2023-02-21T16:56:33.287Z,54.90
2023-02-21T16:59:02.363Z,54.55
2023-02-21T17:01:34.218Z,54.35
2023-02-21T17:04:04.956Z,53.96
2023-02-21T17:06:34.989Z,53.02
2023-02-21T17:09:03.694Z,53.50
2023-02-21T17:11:33.672Z,53.88
2023-02-21T17:14:02.326Z,54.38
2023-02-21T17:16:30.933Z,54.82
2023-02-21T17:18:59.611Z,54.46
2023-02-21T17:21:28.264Z,54.85
2023-02-21T17:23:57.525Z,54.68
2023-02-21T17:26:26.217Z,54.97
2023-02-21T17:28:56.270Z,55.09
2023-02-21T17:31:24.902Z,55.64
2023-02-21T17:33:54.551Z,55.52
2023-02-21T17:36:25.235Z,55.91
2023-02-21T17:38:54.019Z,56.53
2023-02-21T17:41:22.803Z,56.56
2023-02-21T17:43:51.479Z,56.51
2023-02-21T17:46:22.045Z,56.86
2023-02-21T17:48:50.949Z,57.37
2023-02-21T17:51:24.558Z,57.54
2023-02-21T17:53:53.439Z,57.43
2023-02-21T17:56:24.378Z,58.06
2023-02-21T17:58:52.989Z,58.14
2023-02-21T18:01:23.072Z,58.29
2023-02-21T18:03:51.979Z,58.95
2023-02-21T18:06:21.949Z,59.37
2023-02-21T18:08:50.988Z,60.01
2023-02-21T18:11:20.141Z,60.69
2023-02-21T18:13:49.054Z,60.30
2023-02-21T18:16:17.906Z,61.28
2023-02-21T18:18:47.898Z,61.69
2023-02-21T18:21:17.198Z,62.05
2023-02-21T18:23:47.013Z,62.60
2023-02-21T18:26:15.992Z,62.09
2023-02-21T18:28:44.806Z,62.81
2023-02-21T18:31:16.566Z,62.94
2023-02-21T18:33:45.751Z,63.65
2023-02-21T18:36:15.845Z,64.02
2023-02-21T18:38:44.505Z,64.31
2023-02-21T18:41:13.657Z,64.17
2023-02-21T18:43:44.015Z,64.35
2023-02-21T18:46:14.445Z,64.88
2023-02-21T18:48:44.143Z,64.92
2023-02-21T18:51:16.131Z,64.67
2023-02-21T18:53:45.389Z,65.71
2023-02-21T18:56:15.524Z,65.42
2023-02-21T18:58:44.155Z,65.81
2023-02-21T19:01:15.348Z,66.29
2023-02-21T19:03:44.399Z,66.21
2023-02-21T19:06:15.327Z,66.42
2023-02-21T19:08:44.954Z,66.74
2023-02-21T19:11:15.111Z,66.60
2023-02-21T19:13:47.171Z,67.05
2023-02-21T19:16:15.841Z,66.89
2023-02-21T19:18:44.557Z,67.24
2023-02-21T19:21:13.518Z,67.92
2023-02-21T19:23:44.509Z,67.87
2023-02-21T19:26:13.133Z,67.84
2023-02-21T19:28:41.918Z,68.27
2023-02-21T19:31:11.417Z,68.68
2023-02-21T19:33:40.323Z,68.64
2023-02-21T19:36:10.057Z,68.45
2023-02-21T19:38:38.884Z,68.72
2023-02-21T19:41:09.671Z,69.15
2023-02-21T19:43:38.394Z,69.18
2023-02-21T19:46:07.367Z,69.42
2023-02-21T19:48:36.074Z,69.96
2023-02-21T19:51:05.133Z,70.13
2023-02-21T19:53:33.872Z,70.76
2023-02-21T19:56:02.981Z,70.76
2023-02-21T19:58:33.004Z,70.54
2023-02-21T20:01:01.724Z,70.94
2023-02-21T20:03:30.443Z,71.99
2023-02-21T20:05:59.071Z,71.61
2023-02-21T20:08:29.220Z,71.89
2023-02-21T20:10:58.030Z,71.83
2023-02-21T20:13:26.671Z,72.06
2023-02-21T20:15:56.710Z,73.12
2023-02-21T20:18:25.368Z,72.88
2023-02-21T20:20:54.022Z,74.14
2023-02-21T20:23:23.163Z,74.07
2023-02-21T20:25:51.960Z,73.45
2023-02-21T20:28:20.587Z,72.13
2023-02-21T20:30:49.352Z,71.80
2023-02-21T20:33:20.564Z,72.54
2023-02-21T20:35:49.272Z,71.95
2023-02-21T20:38:17.880Z,71.99
2023-02-21T20:40:46.974Z,71.96
2023-02-21T20:43:15.652Z,72.34
2023-02-21T20:45:44.557Z,71.88
2023-02-21T20:48:13.302Z,71.63
2023-02-21T20:50:43.391Z,71.55
2023-02-21T20:53:12.143Z,72.09
2023-02-21T20:55:40.805Z,72.61
2023-02-21T20:58:12.437Z,72.90
2023-02-21T21:00:41.209Z,72.81
2023-02-21T21:03:14.488Z,73.22
2023-02-21T21:05:44.941Z,73.23
2023-02-21T21:08:13.680Z,73.15
2023-02-21T21:10:48.440Z,72.88
2023-02-21T21:13:17.609Z,73.22
2023-02-21T21:15:46.633Z,73.20
2023-02-21T21:18:15.332Z,73.25
2023-02-21T21:20:45.342Z,73.12
2023-02-21T21:23:13.997Z,73.25
2023-02-21T21:25:43.092Z,73.84
2023-02-21T21:28:13.334Z,74.12
2023-02-21T21:30:42.640Z,73.91
2023-02-21T21:33:11.430Z,74.52
2023-02-21T21:35:40.096Z,74.54
2023-02-21T21:38:10.553Z,74.62
2023-02-21T21:40:39.411Z,74.77
2023-02-21T21:43:12.185Z,75.27
2023-02-21T21:45:44.433Z,75.23
2023-02-21T21:48:14.922Z,75.41
2023-02-21T21:50:43.569Z,75.57
2023-02-21T21:53:13.705Z,75.54
2023-02-21T21:55:42.366Z,75.32
2023-02-21T21:58:13.827Z,75.59
2023-02-21T22:00:43.045Z,75.90
2023-02-21T22:03:14.300Z,76.01
2023-02-21T22:05:44.094Z,75.72
2023-02-21T22:08:16.634Z,76.11
2023-02-21T22:10:46.182Z,76.12
2023-02-21T22:13:15.019Z,76.22
2023-02-21T22:15:44.678Z,76.36
2023-02-21T22:18:17.324Z,76.26
2023-02-21T22:20:49.581Z,77.18
2023-02-21T22:23:22.553Z,76.91
2023-02-21T22:25:51.291Z,77.10
2023-02-21T22:28:19.900Z,77.00
2023-02-21T22:30:48.531Z,77.38
2023-02-21T22:33:20.345Z,78.43
2023-02-21T22:35:49.135Z,78.72
2023-02-21T22:38:19.303Z,78.27
2023-02-21T22:40:48.002Z,78.59
2023-02-21T22:43:19.907Z,78.94
2023-02-21T22:45:50.004Z,79.53
2023-02-21T22:48:20.895Z,78.68
2023-02-21T22:50:49.993Z,78.94
2023-02-21T22:53:21.196Z,79.08
2023-02-21T22:55:52.471Z,79.32
2023-02-21T22:58:21.695Z,79.60
2023-02-21T23:00:50.949Z,79.36
2023-02-21T23:03:19.605Z,79.94
2023-02-21T23:05:50.491Z,80.03
2023-02-21T23:08:22.571Z,80.05
2023-02-21T23:10:51.493Z,79.95
2023-02-21T23:13:22.926Z,80.51
2023-02-21T23:15:54.722Z,79.96
2023-02-21T23:18:26.061Z,80.75
2023-02-21T23:20:56.386Z,80.59
2023-02-21T23:23:28.438Z,80.61
2023-02-21T23:25:58.960Z,81.49
2023-02-21T23:28:30.014Z,81.32
2023-02-21T23:30:59.197Z,81.14
2023-02-21T23:33:29.584Z,81.28
2023-02-21T23:35:58.651Z,81.51
2023-02-21T23:38:28.990Z,81.27
2023-02-21T23:41:01.759Z,81.40
2023-02-21T23:43:35.685Z,80.80
2023-02-21T23:46:06.448Z,81.16
2023-02-21T23:48:35.033Z,81.46
2023-02-21T23:51:03.610Z,81.08
2023-02-21T23:53:33.735Z,81.75
2023-02-21T23:56:02.478Z,81.65
2023-02-21T23:58:32.390Z,81.48
